TAP830 LPPT-LIRF
Flight info
| Callsign | TAP830 |
|---|---|
| Flight time | N/A |
| Altitude | 36000 |
| Route | ORVED DCT UREDI N870 PISUS/N0447F300 N870 PONEN/N0449F360 DCT SEROX DCT VILAR DCT KARES DCT BISES DCT BCN/N0448F350 DCT DIPES/N0448F360 N725 TOSNU/N0448F350 DCT LAPIT DCT OSPOK DCT NOLVI DCT ORKUM/N0447F360 DCT ELSAG DCT ALG DCT ROMPO DCT RUXOP DCT BATOX DCT TINTO L5 VALMA |
| Aircraft | A321/M-SDE3FGHIRWY/LB1 |
Departure
| Time | N/A |
|---|---|
| Airport | Lisbon Humberto Delgado Airport (LPPT) |
Arrival
| Time | 2026-05-01 07:36 |
|---|---|
| Airport | Rome–Fiumicino Leonardo da Vinci International Airport (LIRF) |
| Time | Latitude | Longitude | Altitude | Speed | Heading |
|---|---|---|---|---|---|
| 2026-05-01 07:23 | 41.77069 | 12.11635 | 21871 ft | 344 kts | 63° |
| 2026-05-01 07:23 | 41.78689 | 12.17578 | 21023 ft | 335 kts | 63° |
| 2026-05-01 07:24 | 41.79457 | 12.20422 | 20828 ft | 323 kts | 63° |
| 2026-05-01 07:24 | 41.80204 | 12.23195 | 20655 ft | 311 kts | 62° |
| 2026-05-01 07:24 | 41.80909 | 12.25913 | 20320 ft | 307 kts | 64° |
| 2026-05-01 07:24 | 41.81556 | 12.28624 | 19940 ft | 304 kts | 65° |
| 2026-05-01 07:25 | 41.82174 | 12.31319 | 19279 ft | 302 kts | 65° |
| 2026-05-01 07:25 | 41.82784 | 12.34011 | 18472 ft | 301 kts | 65° |
| 2026-05-01 07:25 | 41.83248 | 12.36738 | 17676 ft | 307 kts | 83° |
| 2026-05-01 07:25 | 41.82695 | 12.39550 | 17416 ft | 320 kts | 115° |
| 2026-05-01 07:26 | 41.81143 | 12.41678 | 17212 ft | 325 kts | 146° |
| 2026-05-01 07:26 | 41.79139 | 12.42952 | 16915 ft | 323 kts | 158° |
| 2026-05-01 07:26 | 41.76994 | 12.43874 | 16497 ft | 324 kts | 163° |
| 2026-05-01 07:26 | 41.74824 | 12.44626 | 16128 ft | 322 kts | 165° |
| 2026-05-01 07:27 | 41.72664 | 12.45347 | 15633 ft | 319 kts | 165° |
| 2026-05-01 07:27 | 41.70501 | 12.46107 | 14806 ft | 322 kts | 163° |
| 2026-05-01 07:27 | 41.68358 | 12.46913 | 14164 ft | 318 kts | 162° |
| 2026-05-01 07:27 | 41.66253 | 12.47749 | 13472 ft | 313 kts | 162° |
| 2026-05-01 07:28 | 41.64181 | 12.48597 | 12796 ft | 308 kts | 161° |
| 2026-05-01 07:28 | 41.62136 | 12.49383 | 11943 ft | 308 kts | 171° |
| 2026-05-01 07:28 | 41.60026 | 12.49165 | 10864 ft | 314 kts | 202° |
| 2026-05-01 07:28 | 41.58216 | 12.47597 | 9724 ft | 313 kts | 232° |
| 2026-05-01 07:29 | 41.57044 | 12.45159 | 8387 ft | 316 kts | 245° |
| 2026-05-01 07:29 | 41.56101 | 12.42480 | 7048 ft | 320 kts | 259° |
| 2026-05-01 07:29 | 41.56147 | 12.39653 | 6409 ft | 293 kts | 293° |
| 2026-05-01 07:29 | 41.57205 | 12.37509 | 5838 ft | 271 kts | 324° |
| 2026-05-01 07:30 | 41.58865 | 12.36578 | 5269 ft | 255 kts | 351° |
| 2026-05-01 07:30 | 41.60570 | 12.36149 | 4632 ft | 246 kts | 345° |
| 2026-05-01 07:30 | 41.62169 | 12.35522 | 4018 ft | 230 kts | 342° |
| 2026-05-01 07:30 | 41.63603 | 12.34914 | 3672 ft | 208 kts | 342° |
| 2026-05-01 07:31 | 41.64927 | 12.34358 | 3400 ft | 190 kts | 342° |
| 2026-05-01 07:31 | 41.68497 | 12.32870 | 2653 ft | 174 kts | 345° |
| 2026-05-01 07:32 | 41.70704 | 12.31950 | 2203 ft | 155 kts | 345° |
| 2026-05-01 07:32 | 41.71688 | 12.31540 | 2000 ft | 145 kts | 347° |
| 2026-05-01 07:33 | 41.73547 | 12.30766 | 1618 ft | 139 kts | 348° |
| 2026-05-01 07:33 | 41.74479 | 12.30378 | 1419 ft | 141 kts | 346° |
| 2026-05-01 07:33 | 41.76322 | 12.29609 | 1027 ft | 136 kts | 347° |
| 2026-05-01 07:34 | 41.77226 | 12.29231 | 824 ft | 136 kts | 345° |
| 2026-05-01 07:34 | 41.79038 | 12.28486 | 501 ft | 136 kts | 347° |
| 2026-05-01 07:34 | 41.79937 | 12.28088 | 346 ft | 136 kts | 348° |
| 2026-05-01 07:35 | 41.80823 | 12.27720 | 206 ft | 135 kts | 347° |
| 2026-05-01 07:35 | 41.81720 | 12.27350 | 28 ft | 133 kts | 347° |
| 2026-05-01 07:35 | 41.82504 | 12.27034 | 11 ft | 92 kts | 341° |
| 2026-05-01 07:35 | 41.82961 | 12.26826 | 12 ft | 57 kts | 332° |
| 2026-05-01 07:36 | 41.83167 | 12.26605 | 10 ft | 25 kts | 313° |
| 2026-05-01 07:36 | 41.83241 | 12.26466 | 14 ft | 15 kts | 273° |
| 2026-05-01 07:36 | 41.83177 | 12.26422 | 12 ft | 12 kts | 163° |
| 2026-05-01 07:36 | 41.83079 | 12.26463 | 11 ft | 15 kts | 164° |
| 2026-05-01 07:37 | 41.82872 | 12.26548 | 11 ft | 22 kts | 163° |
| 2026-05-01 07:37 | 41.82706 | 12.26614 | 11 ft | 27 kts | 163° |
| 2026-05-01 07:37 | 41.82523 | 12.26692 | 11 ft | 27 kts | 162° |
| 2026-05-01 07:38 | 41.82344 | 12.26769 | 11 ft | 27 kts | 162° |
| 2026-05-01 07:38 | 41.82170 | 12.26845 | 11 ft | 26 kts | 161° |
| 2026-05-01 07:38 | 41.81839 | 12.26983 | 11 ft | 24 kts | 162° |
| 2026-05-01 07:39 | 41.81688 | 12.27047 | 13 ft | 23 kts | 163° |
| 2026-05-01 07:39 | 41.81541 | 12.27107 | 12 ft | 21 kts | 163° |
| 2026-05-01 07:39 | 41.81236 | 12.27235 | 12 ft | 30 kts | 162° |
| 2026-05-01 07:40 | 41.81030 | 12.27323 | 12 ft | 31 kts | 162° |
| 2026-05-01 07:40 | 41.80824 | 12.27332 | 12 ft | 30 kts | 191° |
| 2026-05-01 07:40 | 41.80653 | 12.27221 | 13 ft | 28 kts | 245° |
| 2026-05-01 07:40 | 41.80589 | 12.26983 | 15 ft | 27 kts | 250° |
| 2026-05-01 07:41 | 41.80528 | 12.26758 | 14 ft | 25 kts | 250° |
| 2026-05-01 07:41 | 41.80470 | 12.26545 | 16 ft | 24 kts | 249° |
| 2026-05-01 07:41 | 41.80356 | 12.26148 | 14 ft | 22 kts | 239° |
| 2026-05-01 07:42 | 41.80234 | 12.26043 | 14 ft | 21 kts | 205° |
| 2026-05-01 07:42 | 41.80114 | 12.25969 | 14 ft | 18 kts | 203° |
| 2026-05-01 07:42 | 41.79997 | 12.25892 | 14 ft | 20 kts | 206° |
| 2026-05-01 07:42 | 41.79869 | 12.25823 | 14 ft | 12 kts | 186° |
| 2026-05-01 07:43 | 41.79819 | 12.25836 | 14 ft | 6 kts | 196° |
| 2026-05-01 07:43 | 41.79768 | 12.25802 | 14 ft | 11 kts | 206° |
| 2026-05-01 07:43 | 41.79596 | 12.25691 | 14 ft | 9 kts | 207° |
| 2026-05-01 07:44 | 41.79557 | 12.25740 | 14 ft | 2 kts | 116° |
| 2026-05-01 07:44 | 41.79556 | 12.25745 | 14 ft | 0 kts | 116° |